Time;durP1;ratioP1;P1;durP2;ratioP2;P2;SDS_P1;SDS_P2;PMS_P1;PMS_P2;Temp;Humidity;BMP_temperature;BMP_pressure;BME280_temperature;BME280_humidity;BME280_pressure;Samples;Min_cycle;Max_cycle;Signal;HPM_P1;HPM_P2
2022/09/19 00:01:10;;;;;;;19.27;3.97;;;;;;;;;;5091279;28;20460;-80
2022/09/19 00:03:36;;;;;;;24.15;3.60;;;;;;;;;;5074471;28;20473;-81
2022/09/19 00:06:02;;;;;;;22.83;4.00;;;;;;;;;;5090514;28;20473;-82
2022/09/19 00:08:28;;;;;;;17.48;3.40;;;;;;;;;;5084746;27;20498;-81
2022/09/19 00:10:54;;;;;;;22.73;3.67;;;;;;;;;;5115039;27;20914;-81
2022/09/19 00:13:20;;;;;;;21.77;3.45;;;;;;;;;;5097506;27;20412;-80
2022/09/19 00:15:48;;;;;;;19.73;3.55;;;;;;;;;;5080992;28;20437;-81
2022/09/19 00:18:15;;;;;;;23.88;3.55;;;11.10;99.90;;;;;;5073642;28;20416;-80
2022/09/19 00:20:41;;;;;;;15.70;3.58;;;;;;;;;;5092329;27;20431;-81
2022/09/19 00:26:01;;;;;;;22.67;3.60;;;;;;;;;;5073872;27;20405;-82
2022/09/19 00:28:27;;;;;;;20.33;3.78;;;;;;;;;;5099876;27;20454;-81
2022/09/19 00:30:54;;;;;;;19.00;3.42;;;11.30;99.90;;;;;;5052733;27;20868;-82
2022/09/19 00:33:21;;;;;;;21.98;3.67;;;;;;;;;;5112607;27;20438;-82
2022/09/19 00:35:54;;;;;;;15.02;3.15;;;;;;;;;;5110652;27;20422;-81
2022/09/19 00:38:21;;;;;;;16.58;3.00;;;;;;;;;;5103458;28;20604;-83
2022/09/19 00:40:47;;;;;;;14.27;2.95;;;;;;;;;;5089255;27;20913;-83
2022/09/19 00:43:14;;;;;;;19.55;2.85;;;;;;;;;;5108773;27;20924;-82
2022/09/19 00:45:40;;;;;;;16.33;2.63;;;;;;;;;;5095601;27;20414;-82
2022/09/19 00:48:06;;;;;;;18.17;2.67;;;;;;;;;;5112704;27;20483;-82
2022/09/19 00:50:32;;;;;;;16.37;2.90;;;;;;;;;;5089895;27;20456;-82
2022/09/19 00:53:01;;;;;;;20.48;2.97;;;;;;;;;;5082043;27;20867;-82
2022/09/19 00:55:27;;;;;;;17.38;3.22;;;;;;;;;;5085466;27;20535;-82
2022/09/19 00:57:56;;;;;;;19.33;3.35;;;;;;;;;;5110880;28;20422;-82
2022/09/19 01:00:22;;;;;;;19.17;3.50;;;;;;;;;;5094920;28;20420;-82
2022/09/19 01:02:49;;;;;;;23.40;3.53;;;;;;;;;;5097826;28;20719;-86
2022/09/19 01:05:16;;;;;;;16.25;3.20;;;11.70;99.90;;;;;;5076055;28;20769;-83
2022/09/19 01:07:53;;;;;;;23.33;3.73;;;;;;;;;;5084449;28;20781;-83
2022/09/19 01:10:23;;;;;;;22.43;4.07;;;;;;;;;;5092416;28;20911;-83
2022/09/19 01:12:55;;;;;;;20.77;3.75;;;;;;;;;;5076901;28;20891;-83
2022/09/19 01:15:26;;;;;;;25.95;3.72;;;;;;;;;;5096219;28;20994;-82
2022/09/19 01:17:54;;;;;;;28.63;3.90;;;;;;;;;;5103364;28;20744;-81
2022/09/19 01:20:23;;;;;;;29.48;4.32;;;;;;;;;;5078276;28;20414;-81
2022/09/19 01:23:07;;;;;;;21.02;4.10;;;;;;;;;;5083361;28;20421;-81
2022/09/19 01:26:03;;;;;;;23.15;3.85;;;11.80;99.90;;;;;;5097264;28;20405;-82
2022/09/19 01:28:40;;;;;;;27.80;4.05;;;;;;;;;;5095359;28;20494;-82
2022/09/19 01:31:18;;;;;;;27.13;4.03;;;;;;;;;;5095455;28;20496;-82
2022/09/19 01:33:53;;;;;;;28.90;4.72;;;;;;;;;;5099589;28;20758;-81
2022/09/19 01:36:21;;;;;;;29.33;4.43;;;;;;;;;;5068547;28;20439;-81
2022/09/19 01:38:51;;;;;;;27.63;4.10;;;;;;;;;;5106904;27;20417;-81
2022/09/19 01:41:21;;;;;;;28.92;4.50;;;;;;;;;;5117900;27;20398;-81
2022/09/19 01:43:47;;;;;;;27.63;4.90;;;;;;;;;;5118460;27;20411;-81
2022/09/19 01:46:34;;;;;;;30.55;4.50;;;11.70;99.90;;;;;;5093895;27;21204;-81
2022/09/19 01:49:07;;;;;;;34.42;5.40;;;;;;;;;;5108469;28;20412;-81
2022/09/19 01:51:46;;;;;;;33.35;5.47;;;11.70;99.90;;;;;;5111045;27;20410;-81
2022/09/19 01:54:23;;;;;;;32.35;4.20;;;;;;;;;;5101505;27;20473;-81
2022/09/19 01:56:58;;;;;;;30.77;5.18;;;;;;;;;;5101389;27;20390;-81
2022/09/19 01:59:30;;;;;;;33.20;4.93;;;;;;;;;;5114774;27;20515;-83
2022/09/19 02:02:42;;;;;;;31.00;4.45;;;11.70;99.90;;;;;;5111235;27;20426;-83
2022/09/19 02:05:10;;;;;;;30.37;4.43;;;11.80;99.90;;;;;;5115579;27;20517;-82
2022/09/19 02:08:03;;;;;;;29.40;5.05;;;11.60;99.90;;;;;;5087129;28;20426;-82
2022/09/19 02:10:46;;;;;;;29.45;4.63;;;11.60;99.90;;;;;;5096927;28;20424;-82
2022/09/19 02:13:15;;;;;;;26.73;4.40;;;11.80;99.90;;;;;;5116919;27;20906;-82
2022/09/19 02:15:46;;;;;;;27.98;4.63;;;;;;;;;;5089070;28;20412;-82
2022/09/19 02:18:22;;;;;;;25.60;4.60;;;;;;;;;;5094981;28;20469;-82
2022/09/19 02:20:51;;;;;;;26.88;4.32;;;11.60;99.90;;;;;;5112740;27;20457;-81
2022/09/19 02:23:24;;;;;;;18.25;3.28;;;11.50;99.90;;;;;;5117096;27;20508;-82
2022/09/19 02:25:52;;;;;;;22.50;3.30;;;11.80;99.90;;;;;;5099202;27;20461;-81
2022/09/19 02:28:21;;;;;;;21.23;3.00;;;;;;;;;;5114896;27;20455;-81
2022/09/19 02:30:48;;;;;;;18.60;3.22;;;;;;;;;;5112642;27;20419;-81
2022/09/19 02:33:15;;;;;;;16.20;3.00;;;;;;;;;;5084780;27;20434;-81
2022/09/19 02:35:46;;;;;;;9.95;2.88;;;;;;;;;;5102384;27;20395;-82
2022/09/19 02:38:19;;;;;;;14.15;2.60;;;;;;;;;;5115816;28;20626;-82
2022/09/19 02:40:59;;;;;;;11.95;2.38;;;;;;;;;;5087798;27;20422;-82
2022/09/19 02:43:40;;;;;;;13.38;2.70;;;;;;;;;;5102550;28;20427;-81
2022/09/19 02:46:17;;;;;;;11.32;2.30;;;11.50;99.90;;;;;;5075373;27;20414;-82
2022/09/19 02:48:49;;;;;;;15.07;2.70;;;;;;;;;;5116791;27;20402;-82
2022/09/19 02:51:25;;;;;;;12.25;2.30;;;;;;;;;;5075076;28;20444;-81
2022/09/19 02:53:57;;;;;;;15.93;2.75;;;;;;;;;;5103220;27;20506;-82
2022/09/19 02:56:28;;;;;;;13.63;2.70;;;;;;;;;;5112125;28;20403;-82
2022/09/19 02:58:58;;;;;;;14.00;2.63;;;;;;;;;;5092467;27;20414;-82
2022/09/19 03:01:26;;;;;;;12.05;2.40;;;;;;;;;;5076126;27;20426;-82
2022/09/19 03:04:12;;;;;;;19.27;2.97;;;;;;;;;;5096014;28;20400;-82
2022/09/19 03:06:42;;;;;;;14.73;2.50;;;;;;;;;;5058943;28;20394;-82
2022/09/19 03:09:11;;;;;;;15.00;2.65;;;;;;;;;;5095187;27;20548;-82
2022/09/19 03:11:39;;;;;;;11.30;2.30;;;;;;;;;;5109954;27;20417;-82
2022/09/19 03:14:06;;;;;;;13.47;2.70;;;;;;;;;;5075558;28;20497;-82
2022/09/19 03:16:34;;;;;;;10.30;2.50;;;;;;;;;;5103075;27;20421;-82
2022/09/19 03:19:08;;;;;;;12.60;3.20;;;;;;;;;;5134437;27;20394;-82
2022/09/19 03:21:34;;;;;;;14.37;3.37;;;;;;;;;;5096350;27;20410;-82
2022/09/19 03:24:01;;;;;;;10.18;2.72;;;;;;;;;;5095182;28;20433;-82
2022/09/19 03:26:30;;;;;;;15.13;2.50;;;;;;;;;;5099982;28;20418;-82
2022/09/19 03:28:56;;;;;;;14.75;2.30;;;;;;;;;;5066016;28;20460;-82
2022/09/19 03:31:23;;;;;;;17.13;2.83;;;;;;;;;;5075280;28;20401;-82
2022/09/19 03:33:51;;;;;;;15.98;2.60;;;;;;;;;;5075551;28;20784;-82
2022/09/19 03:36:17;;;;;;;13.00;2.90;;;;;;;;;;5078809;28;20403;-83
2022/09/19 03:38:46;;;;;;;19.90;3.55;;;;;;;;;;5094779;27;20399;-83
2022/09/19 03:41:13;;;;;;;16.75;3.25;;;;;;;;;;5106779;27;20421;-83
2022/09/19 03:43:42;;;;;;;19.38;2.72;;;;;;;;;;5097207;27;20417;-84
2022/09/19 03:46:10;;;;;;;19.45;2.97;;;;;;;;;;5098548;27;20398;-83
2022/09/19 03:48:36;;;;;;;16.20;2.92;;;;;;;;;;5113194;27;20479;-84
2022/09/19 03:51:02;;;;;;;16.40;2.50;;;;;;;;;;5081153;27;20902;-83
2022/09/19 03:53:30;;;;;;;18.83;3.40;;;;;;;;;;5095514;27;20416;-84
2022/09/19 03:55:57;;;;;;;18.63;3.10;;;;;;;;;;5093009;28;20423;-84
2022/09/19 03:58:26;;;;;;;19.38;3.17;;;;;;;;;;5112350;28;20471;-83
2022/09/19 04:00:53;;;;;;;21.83;3.30;;;;;;;;;;5078534;28;20407;-84
2022/09/19 04:03:23;;;;;;;20.77;3.03;;;;;;;;;;5073578;28;20434;-84
2022/09/19 04:05:50;;;;;;;16.80;3.10;;;;;;;;;;5058366;28;20459;-84
2022/09/19 04:08:16;;;;;;;19.42;3.95;;;;;;;;;;5084991;27;20423;-84
2022/09/19 04:10:42;;;;;;;22.08;3.22;;;;;;;;;;5075373;28;20505;-83
2022/09/19 04:13:09;;;;;;;20.08;3.30;;;;;;;;;;5095602;27;20459;-83
2022/09/19 04:15:35;;;;;;;20.60;3.10;;;;;;;;;;5081338;27;20391;-83
2022/09/19 04:18:03;;;;;;;21.10;3.45;;;;;;;;;;5095301;27;20560;-83
2022/09/19 04:20:30;;;;;;;22.67;3.75;;;;;;;;;;5113475;28;20481;-83
2022/09/19 04:23:00;;;;;;;19.55;3.20;;;;;;;;;;5095676;27;20426;-83
2022/09/19 04:25:32;;;;;;;19.98;3.00;;;;;;;;;;5080927;28;20460;-83
2022/09/19 04:28:02;;;;;;;22.98;3.22;;;;;;;;;;5084191;28;20478;-83
2022/09/19 04:30:28;;;;;;;20.35;4.88;;;;;;;;;;5078169;28;20526;-83
2022/09/19 04:32:54;;;;;;;21.13;6.28;;;;;;;;;;5084953;27;20494;-83
2022/09/19 04:35:22;;;;;;;21.48;4.68;;;;;;;;;;5095110;27;20414;-82
2022/09/19 04:37:49;;;;;;;25.00;3.80;;;;;;;;;;5081047;27;20486;-82
2022/09/19 04:40:15;;;;;;;24.55;5.68;;;;;;;;;;5088780;27;20463;-82
2022/09/19 04:42:41;;;;;;;23.20;4.53;;;;;;;;;;5096081;27;20406;-82
2022/09/19 04:45:08;;;;;;;16.83;4.07;;;;;;;;;;5082468;28;20474;-82
2022/09/19 04:47:38;;;;;;;20.60;4.05;;;;;;;;;;5081204;27;20418;-82
2022/09/19 04:50:08;;;;;;;17.73;3.05;;;11.00;99.90;;;;;;5063175;28;20422;-81
2022/09/19 04:52:34;;;;;;;17.85;3.22;;;;;;;;;;5073339;28;20463;-82
2022/09/19 04:55:01;;;;;;;15.50;2.92;;;;;;;;;;5088062;28;20422;-82
2022/09/19 04:57:27;;;;;;;14.68;2.90;;;;;;;;;;5073905;28;20895;-82
2022/09/19 04:59:55;;;;;;;16.88;2.72;;;;;;;;;;5056916;28;20406;-82
2022/09/19 05:02:21;;;;;;;17.38;3.00;;;;;;;;;;5057153;28;20912;-82
2022/09/19 05:04:47;;;;;;;16.90;3.65;;;;;;;;;;5091571;28;20709;-83
2022/09/19 05:07:13;;;;;;;26.17;9.50;;;;;;;;;;5094253;27;20423;-83
2022/09/19 05:09:42;;;;;;;20.05;9.23;;;11.10;99.90;;;;;;5097094;27;20422;-83
2022/09/19 05:12:09;;;;;;;20.80;7.90;;;;;;;;;;5097276;28;20452;-83
2022/09/19 05:14:35;;;;;;;16.80;4.05;;;;;;;;;;5085908;28;20409;-83
2022/09/19 05:17:01;;;;;;;16.42;3.13;;;;;;;;;;5047784;28;20422;-82
2022/09/19 05:19:28;;;;;;;18.83;3.13;;;;;;;;;;5111821;28;20471;-83
2022/09/19 05:21:54;;;;;;;17.85;2.92;;;;;;;;;;5065901;28;20464;-83
2022/09/19 05:24:20;;;;;;;16.88;3.10;;;;;;;;;;5095574;28;21017;-83
2022/09/19 05:26:46;;;;;;;17.90;2.90;;;;;;;;;;5073539;28;20406;-82
2022/09/19 05:29:13;;;;;;;20.48;3.38;;;;;;;;;;5073306;28;20485;-84
2022/09/19 05:31:45;;;;;;;22.33;3.83;;;11.30;99.90;;;;;;5083848;28;20463;-82
2022/09/19 05:34:13;;;;;;;23.63;3.47;;;;;;;;;;5081429;28;20586;-82
2022/09/19 05:36:39;;;;;;;18.97;3.10;;;11.20;99.90;;;;;;5091347;28;20438;-82
2022/09/19 05:39:06;;;;;;;16.25;2.97;;;;;;;;;;5083563;28;20410;-82
2022/09/19 05:41:33;;;;;;;17.15;2.92;;;;;;;;;;5072701;28;20414;-78
2022/09/19 05:43:59;;;;;;;14.30;2.85;;;;;;;;;;5063135;28;20472;-77
2022/09/19 05:46:25;;;;;;;17.75;3.15;;;;;;;;;;5113825;28;20795;-76
2022/09/19 05:48:51;;;;;;;16.95;2.75;;;;;;;;;;5095883;28;20421;-77
2022/09/19 05:51:17;;;;;;;14.38;2.92;;;;;;;;;;5082579;28;20771;-76
2022/09/19 05:53:52;;;;;;;15.63;2.58;;;;;;;;;;5103181;28;20485;-76
2022/09/19 05:56:19;;;;;;;17.63;2.90;;;;;;;;;;5059987;28;20410;-77
2022/09/19 05:58:45;;;;;;;16.53;3.20;;;;;;;;;;5081239;28;20538;-77
2022/09/19 06:01:12;;;;;;;16.65;2.55;;;;;;;;;;5106623;28;20417;-77
2022/09/19 06:03:38;;;;;;;16.45;2.95;;;;;;;;;;5103134;28;20458;-77
2022/09/19 06:06:11;;;;;;;20.55;3.30;;;11.40;99.90;;;;;;5055980;28;20402;-77
2022/09/19 06:08:38;;;;;;;13.88;2.70;;;;;;;;;;5063696;28;20788;-76
2022/09/19 06:11:04;;;;;;;13.70;2.65;;;;;;;;;;5090491;28;20460;-77
2022/09/19 06:16:17;;;;;;;17.67;2.60;;;;;;;;;;5105813;27;20479;-78
2022/09/19 06:18:44;;;;;;;15.07;3.00;;;;;;;;;;5087133;28;20422;-78
2022/09/19 06:21:10;;;;;;;19.45;2.58;;;;;;;;;;5097030;27;20491;-79
2022/09/19 06:23:36;;;;;;;15.23;2.78;;;;;;;;;;5109610;27;20422;-77
2022/09/19 06:26:02;;;;;;;11.80;2.45;;;;;;;;;;5093135;28;20424;-77
2022/09/19 06:28:28;;;;;;;17.65;2.63;;;;;;;;;;5102762;28;20426;-77
2022/09/19 06:30:54;;;;;;;12.45;3.03;;;;;;;;;;5081517;27;20465;-77
2022/09/19 06:33:20;;;;;;;15.20;2.50;;;;;;;;;;5064805;28;20410;-77
2022/09/19 06:35:47;;;;;;;15.65;2.88;;;;;;;;;;5104395;27;20413;-77
2022/09/19 06:38:13;;;;;;;14.02;2.60;;;;;;;;;;5090359;27;21058;-77
2022/09/19 06:40:39;;;;;;;19.73;3.22;;;;;;;;;;5097278;27;20446;-77
2022/09/19 06:43:06;;;;;;;16.73;3.17;;;;;;;;;;5075590;28;20465;-77
2022/09/19 06:45:40;;;;;;;13.50;3.00;;;;;;;;;;5073633;28;20792;-77
2022/09/19 06:48:06;;;;;;;16.98;3.03;;;;;;;;;;5071632;28;20428;-77
2022/09/19 06:50:32;;;;;;;17.43;3.20;;;;;;;;;;5102861;28;20498;-77
2022/09/19 06:52:59;;;;;;;11.65;2.45;;;;;;;;;;5062909;28;20418;-76
2022/09/19 06:55:25;;;;;;;15.82;4.82;;;;;;;;;;5095455;27;20489;-77
2022/09/19 06:57:59;;;;;;;16.08;3.88;;;11.80;99.90;;;;;;5096002;28;20422;-77
2022/09/19 07:00:27;;;;;;;10.93;2.78;;;11.80;99.90;;;;;;5059005;28;20905;-77
2022/09/19 07:02:59;;;;;;;14.80;2.87;;;;;;;;;;5060830;28;20889;-76
2022/09/19 07:05:26;;;;;;;17.27;3.05;;;;;;;;;;5110987;27;20414;-77
2022/09/19 07:07:52;;;;;;;18.60;4.47;;;;;;;;;;5099645;27;20460;-77
2022/09/19 07:10:19;;;;;;;18.17;5.47;;;11.90;99.90;;;;;;5095067;27;20777;-77
2022/09/19 07:12:56;;;;;;;16.40;4.38;;;;;;;;;;5084665;28;20436;-76
2022/09/19 07:15:23;;;;;;;17.20;4.32;;;;;;;;;;5095573;28;20401;-76
2022/09/19 07:17:49;;;;;;;18.33;7.90;;;;;;;;;;5097841;27;20430;-77
2022/09/19 07:20:15;;;;;;;22.10;7.82;;;;;;;;;;5096478;27;20557;-77
2022/09/19 07:22:42;;;;;;;21.53;5.60;;;;;;;;;;5083600;27;20890;-77
2022/09/19 07:25:08;;;;;;;20.20;6.72;;;;;;;;;;5082485;28;20411;-76
2022/09/19 07:27:35;;;;;;;18.67;6.80;;;;;;;;;;5089178;27;20499;-77
2022/09/19 07:30:01;;;;;;;19.23;7.07;;;;;;;;;;5110270;27;20518;-77
2022/09/19 07:32:28;;;;;;;19.80;4.82;;;;;;;;;;5094642;27;20934;-77
2022/09/19 07:34:54;;;;;;;21.23;4.80;;;;;;;;;;5097679;28;20481;-77
2022/09/19 07:37:21;;;;;;;17.48;3.63;;;;;;;;;;5102904;27;20451;-77
2022/09/19 07:39:47;;;;;;;17.83;3.80;;;;;;;;;;5102028;28;20413;-76
2022/09/19 07:42:13;;;;;;;16.55;4.40;;;;;;;;;;5077397;28;20421;-78
2022/09/19 07:44:39;;;;;;;21.93;7.23;;;;;;;;;;5075213;28;20402;-78
2022/09/19 07:49:50;;;;;;;18.63;4.25;;;;;;;;;;5115224;27;20437;-77
2022/09/19 07:52:16;;;;;;;22.00;4.45;;;;;;;;;;5063986;28;20453;-76
2022/09/19 07:54:42;;;;;;;17.67;3.35;;;;;;;;;;5074874;28;20466;-76
2022/09/19 07:57:08;;;;;;;13.35;2.50;;;;;;;;;;5091279;27;20418;-76
2022/09/19 07:59:34;;;;;;;14.15;2.85;;;;;;;;;;5115436;27;20394;-75
2022/09/19 08:02:00;;;;;;;12.27;2.75;;;;;;;;;;5112241;27;20446;-76
2022/09/19 08:04:27;;;;;;;14.83;3.07;;;;;;;;;;5108100;27;20814;-76
2022/09/19 08:06:53;;;;;;;12.20;2.40;;;;;;;;;;5112062;27;20416;-76
2022/09/19 08:09:19;;;;;;;14.93;3.05;;;;;;;;;;5108468;28;20423;-76
2022/09/19 08:11:46;;;;;;;17.27;2.85;;;;;;;;;;5091036;28;20408;-76
2022/09/19 08:14:13;;;;;;;15.98;2.75;;;;;;;;;;5076227;28;20509;-76
2022/09/19 08:16:39;;;;;;;14.68;2.67;;;;;;;;;;5074496;28;20398;-76
2022/09/19 08:19:05;;;;;;;12.88;3.13;;;;;;;;;;5095446;27;20415;-75
2022/09/19 08:21:32;;;;;;;16.88;3.75;;;14.60;99.90;;;;;;5112938;27;20655;-76
2022/09/19 08:23:58;;;;;;;12.80;3.03;;;;;;;;;;5084383;28;21488;-76
2022/09/19 08:26:24;;;;;;;18.15;4.63;;;;;;;;;;5109298;27;20887;-76
2022/09/19 08:28:51;;;;;;;12.90;5.00;;;;;;;;;;5070068;27;20438;-76
2022/09/19 08:31:17;;;;;;;13.88;4.22;;;;;;;;;;5086827;27;20774;-75
2022/09/19 08:33:45;;;;;;;15.15;5.97;;;;;;;;;;5114789;27;20399;-75
2022/09/19 08:36:12;;;;;;;12.82;3.70;;;;;;;;;;5108134;27;20533;-78
2022/09/19 08:38:38;;;;;;;22.85;9.25;;;;;;;;;;5083149;28;20924;-77
2022/09/19 08:41:09;;;;;;;13.40;5.00;;;;;;;;;;5091781;28;20435;-77
2022/09/19 08:43:45;;;;;;;17.67;7.45;;;;;;;;;;5093797;28;20410;-77
2022/09/19 08:46:17;;;;;;;15.38;6.45;;;;;;;;;;5101783;28;20439;-75
2022/09/19 08:49:02;;;;;;;15.70;6.13;;;14.40;99.90;;;;;;5092438;28;20428;-75
2022/09/19 08:51:33;;;;;;;12.63;3.33;;;14.70;99.90;;;;;;5075697;28;20485;-76
2022/09/19 08:54:05;;;;;;;13.77;2.77;;;;;;;;;;5099198;27;20444;-75
2022/09/19 08:56:31;;;;;;;12.45;2.95;;;;;;;;;;5114442;27;20402;-76
2022/09/19 08:59:01;;;;;;;11.70;2.67;;;;;;;;;;5098061;28;20430;-75
2022/09/19 09:01:30;;;;;;;8.35;2.03;;;;;;;;;;5098996;28;20509;-75
2022/09/19 09:04:07;;;;;;;9.68;2.80;;;;;;;;;;5093594;27;20755;-75
2022/09/19 09:06:51;;;;;;;13.63;2.85;;;;;;;;;;5108269;28;20431;-75
2022/09/19 09:09:27;;;;;;;8.88;2.20;;;;;;;;;;5091647;28;20834;-75
2022/09/19 09:12:07;;;;;;;10.40;2.55;;;;;;;;;;5109148;27;20418;-75
2022/09/19 09:15:03;;;;;;;12.03;2.70;;;13.60;99.90;;;;;;5111783;27;20465;-75
2022/09/19 09:17:48;;;;;;;15.23;3.13;;;;;;;;;;5112637;28;20410;-76
2022/09/19 09:20:24;;;;;;;16.43;2.87;;;;;;;;;;5100538;28;20606;-75
2022/09/19 09:22:52;;;;;;;14.55;2.55;;;;;;;;;;5107199;28;20461;-76
2022/09/19 09:25:29;;;;;;;14.30;2.78;;;14.70;99.90;;;;;;5088835;28;20422;-76
2022/09/19 09:28:18;;;;;;;15.87;3.23;;;;;;;;;;5084380;28;20514;-76
2022/09/19 09:30:47;;;;;;;12.85;2.70;;;14.90;99.90;;;;;;5061893;28;20455;-76
2022/09/19 09:33:13;;;;;;;10.47;2.30;;;;;;;;;;5110286;28;20414;-76
2022/09/19 09:35:47;;;;;;;14.27;2.70;;;15.40;99.90;;;;;;5110886;28;20411;-76
2022/09/19 09:38:48;;;;;;;14.90;6.13;;;15.40;99.90;;;;;;5103716;28;20442;-75
2022/09/19 09:41:45;;;;;;;10.02;2.00;;;;;;;;;;5112847;28;20804;-76
2022/09/19 09:44:14;;;;;;;13.38;6.55;;;;;;;;;;5112494;28;20418;-76
2022/09/19 09:47:21;;;;;;;11.57;3.80;;;15.50;99.90;;;;;;5111127;28;20448;-76
2022/09/19 09:49:48;;;;;;;10.70;3.10;;;;;;;;;;5113022;27;20423;-76
2022/09/19 09:52:26;;;;;;;9.77;3.47;;;;;;;;;;5087064;27;20446;-76
2022/09/19 09:57:49;;;;;;;11.97;3.83;;;;;;;;;;5112673;27;20460;-76
2022/09/19 10:03:35;;;;;;;11.60;4.35;;;;;;;;;;5091917;27;20424;-76
2022/09/19 10:06:08;;;;;;;13.23;2.92;;;;;;;;;;5106778;27;20418;-76
2022/09/19 10:08:35;;;;;;;11.02;2.40;;;15.80;99.90;;;;;;5098683;27;20418;-76
2022/09/19 10:11:21;;;;;;;10.73;2.60;;;15.80;99.90;;;;;;5114926;27;20426;-76
2022/09/19 10:13:58;;;;;;;11.40;2.70;;;15.60;99.90;;;;;;5134137;27;20386;-75
2022/09/19 10:16:24;;;;;;;17.85;4.32;;;;;;;;;;5123962;27;20402;-75
2022/09/19 10:18:55;;;;;;;20.05;6.97;;;;;;;;;;5094876;28;20416;-75
2022/09/19 10:21:21;;;;;;;15.13;6.45;;;;;;;;;;5103595;28;20419;-75
2022/09/19 10:23:48;;;;;;;15.80;5.63;;;;;;;;;;5110856;27;20420;-75
2022/09/19 10:26:15;;;;;;;15.57;5.95;;;;;;;;;;5088493;27;20429;-75
2022/09/19 10:28:53;;;;;;;19.40;6.78;;;15.30;99.90;;;;;;5087802;27;20505;-75
2022/09/19 10:31:35;;;;;;;15.67;6.10;;;;;;;;;;5100423;27;20415;-74
2022/09/19 10:34:06;;;;;;;14.23;6.45;;;;;;;;;;5089230;28;20923;-75
2022/09/19 10:36:36;;;;;;;8.85;2.03;;;;;;;;;;5076667;27;20410;-74
2022/09/19 10:39:09;;;;;;;15.15;3.03;;;;;;;;;;5089882;28;20443;-76
2022/09/19 10:41:36;;;;;;;11.40;2.53;;;;;;;;;;5098592;27;20441;-74
2022/09/19 10:44:21;;;;;;;11.05;2.53;;;15.80;99.90;;;;;;5097984;27;20426;-74
2022/09/19 10:46:49;;;;;;;14.23;2.65;;;;;;;;;;5099816;27;20435;-74
2022/09/19 10:49:19;;;;;;;14.77;5.03;;;;;;;;;;5105060;28;20424;-74
2022/09/19 10:51:46;;;;;;;11.05;2.88;;;;;;;;;;5101252;27;20489;-74
2022/09/19 10:54:26;;;;;;;11.27;2.63;;;16.20;99.90;;;;;;5099649;27;20417;-74
2022/09/19 10:56:58;;;;;;;23.90;8.27;;;;;;;;;;5081086;28;20426;-74
2022/09/19 10:59:28;;;;;;;19.65;4.05;;;;;;;;;;5070459;28;20429;-74
2022/09/19 11:02:24;;;;;;;16.05;4.40;;;16.10;99.90;;;;;;5089652;27;20437;-74
2022/09/19 11:05:00;;;;;;;15.98;3.78;;;;;;;;;;5066804;28;20431;-74
2022/09/19 11:07:30;;;;;;;13.07;2.70;;;;;;;;;;5093948;28;20424;-74
2022/09/19 11:09:59;;;;;;;11.48;2.50;;;;;;;;;;5095618;28;20435;-75
2022/09/19 11:12:27;;;;;;;12.13;2.78;;;16.70;99.90;;;;;;5103643;27;20424;-74
2022/09/19 11:14:56;;;;;;;10.80;2.40;;;16.60;99.90;;;;;;5113338;27;20407;-74
2022/09/19 11:17:36;;;;;;;16.05;2.88;;;;;;;;;;5100292;27;20766;-74
2022/09/19 11:20:02;;;;;;;11.57;2.77;;;;;;;;;;5115955;27;20403;-76
2022/09/19 11:22:53;;;;;;;14.98;3.13;;;17.00;99.90;;;;;;5102459;28;20425;-76
2022/09/19 11:25:22;;;;;;;16.37;3.97;;;;;;;;;;5076969;28;20420;-77
2022/09/19 11:28:12;;;;;;;12.93;2.90;;;15.60;99.90;;;;;;5095141;27;20427;-77
2022/09/19 11:30:47;;;;;;;19.05;3.42;;;;;;;;;;5114591;27;20422;-77
2022/09/19 11:33:43;;;;;;;20.08;3.30;;;15.00;99.90;;;;;;5093462;28;20413;-75
2022/09/19 11:36:35;;;;;;;18.60;5.63;;;14.90;99.90;;;;;;5095118;28;20443;-76
2022/09/19 11:39:13;;;;;;;22.48;9.05;;;;;;;;;;5094836;28;20396;-76
2022/09/19 11:42:04;;;;;;;16.13;5.72;;;15.00;99.90;;;;;;5102694;27;20446;-76
2022/09/19 11:44:43;;;;;;;19.33;3.58;;;;;;;;;;5111128;27;20458;-75
2022/09/19 11:47:22;;;;;;;17.20;2.90;;;;;;;;;;5092156;28;20473;-76
2022/09/19 11:50:04;;;;;;;11.98;2.78;;;;;;;;;;5079468;27;20458;-75
2022/09/19 11:52:30;;;;;;;12.50;2.50;;;;;;;;;;5070113;27;20467;-75
2022/09/19 11:55:04;;;;;;;12.13;2.75;;;14.60;99.90;;;;;;5080013;28;20973;-75
2022/09/19 11:57:30;;;;;;;14.05;2.67;;;;;;;;;;5107784;27;20418;-77
2022/09/19 11:59:57;;;;;;;14.98;3.38;;;;;;;;;;5087608;27;20936;-77
2022/09/19 12:02:58;;;;;;;18.60;2.88;;;14.90;99.90;;;;;;5094203;28;20447;-77
2022/09/19 12:05:42;;;;;;;15.48;2.50;;;15.30;99.90;;;;;;5073701;28;20439;-77
2022/09/19 12:08:12;;;;;;;13.05;2.40;;;;;;;;;;5115000;27;20908;-77
2022/09/19 12:10:50;;;;;;;11.35;2.33;;;;;;;;;;5095592;28;20470;-77
2022/09/19 12:13:35;;;;;;;15.90;2.83;;;;;;;;;;5090689;28;20461;-77
2022/09/19 12:16:07;;;;;;;12.43;2.38;;;16.10;99.90;;;;;;5075480;28;20900;-76
2022/09/19 12:18:45;;;;;;;12.23;2.65;;;16.60;99.90;;;;;;5093993;28;20400;-77
2022/09/19 12:21:15;;;;;;;12.82;4.80;;;;;;;;;;5098727;27;20505;-76
2022/09/19 12:26:47;;;;;;;12.00;2.85;;;16.70;99.90;;;;;;5059015;27;20422;-77
2022/09/19 12:29:19;;;;;;;10.52;2.55;;;;;;;;;;5086147;27;20441;-78
2022/09/19 12:31:47;;;;;;;10.93;2.50;;;;;;;;;;5092230;27;20421;-78
2022/09/19 12:34:29;;;;;;;14.43;2.40;;;16.30;99.90;;;;;;5094617;27;20459;-78
2022/09/19 12:37:00;;;;;;;9.50;3.85;;;;;;;;;;5113095;27;20413;-78
2022/09/19 12:39:26;;;;;;;13.60;3.95;;;;;;;;;;5077301;28;20937;-77
2022/09/19 12:42:01;;;;;;;20.03;8.13;;;;;;;;;;5090299;27;20479;-78
2022/09/19 12:44:44;;;;;;;16.73;5.60;;;;;;;;;;5094162;28;20472;-77
2022/09/19 12:47:22;;;;;;;14.23;2.80;;;;;;;;;;5077036;28;20508;-77
2022/09/19 12:49:58;;;;;;;10.00;2.38;;;;;;;;;;5109288;27;20415;-77
2022/09/19 12:52:26;;;;;;;12.60;2.88;;;;;;;;;;5098420;27;20487;-77
2022/09/19 12:54:52;;;;;;;14.73;2.80;;;;;;;;;;5090600;27;20422;-78
2022/09/19 12:57:31;;;;;;;13.37;2.93;;;;;;;;;;5086761;28;20440;-79
2022/09/19 12:59:58;;;;;;;14.15;2.85;;;;;;;;;;5074944;27;20406;-80
2022/09/19 13:02:34;;;;;;;14.20;2.67;;;13.50;99.90;;;;;;5103289;28;20414;-79
2022/09/19 13:05:00;;;;;;;11.35;2.33;;;;;;;;;;5111210;27;20449;-81
2022/09/19 13:07:38;;;;;;;12.75;3.33;;;13.20;99.90;;;;;;5094674;27;20498;-82
2022/09/19 13:10:23;;;;;;;13.70;3.08;;;;;;;;;;5097391;28;20434;-80
2022/09/19 13:12:53;;;;;;;16.42;2.90;;;;;;;;;;5102817;28;20492;-80
2022/09/19 13:15:22;;;;;;;14.15;3.60;;;;;;;;;;5093757;28;20415;-80
2022/09/19 13:23:32;;;;;;;22.45;8.68;;;;;;;;;;5084593;28;20475;-79
2022/09/19 13:26:30;;;;;;;17.58;6.18;;;13.30;99.90;;;;;;5092493;28;20823;-79
2022/09/19 13:28:57;;;;;;;15.30;5.05;;;;;;;;;;5098353;28;20424;-79
2022/09/19 13:31:38;;;;;;;20.60;8.13;;;13.40;99.90;;;;;;5079303;27;20457;-79
2022/09/19 13:34:33;;;;;;;16.25;3.97;;;13.80;99.90;;;;;;5089702;27;20799;-79
2022/09/19 13:37:04;;;;;;;16.08;2.95;;;;;;;;;;5073592;28;20424;-79
2022/09/19 13:39:55;;;;;;;17.02;3.10;;;13.90;99.90;;;;;;5059779;28;20785;-79
2022/09/19 13:42:27;;;;;;;20.60;3.25;;;;;;;;;;5077125;28;20486;-79
2022/09/19 13:45:08;;;;;;;12.50;3.17;;;;;;;;;;5096991;27;20414;-78
2022/09/19 13:47:40;;;;;;;16.23;3.70;;;14.90;99.90;;;;;;5070479;27;20422;-78
2022/09/19 13:50:19;;;;;;;18.85;3.50;;;;;;;;;;5096703;27;20418;-79
2022/09/19 13:52:49;;;;;;;15.68;3.85;;;14.80;99.90;;;;;;5117476;27;20399;-78
2022/09/19 13:55:30;;;;;;;15.70;3.13;;;;;;;;;;5108759;27;20415;-78
2022/09/19 13:58:32;;;;;;;16.25;3.20;;;14.80;99.90;;;;;;5076478;28;20487;-79
2022/09/19 14:01:13;;;;;;;18.10;3.55;;;;;;;;;;5082158;28;20413;-78
2022/09/19 14:03:53;;;;;;;26.08;10.25;;;14.90;99.90;;;;;;5099501;27;20422;-78
2022/09/19 14:06:22;;;;;;;19.85;3.58;;;;;;;;;;5096839;28;20420;-78
2022/09/19 14:09:14;;;;;;;25.17;9.00;;;14.90;99.90;;;;;;5084069;27;20431;-77
2022/09/19 14:11:41;;;;;;;23.37;7.03;;;;;;;;;;5093945;28;20408;-78
2022/09/19 14:14:26;;;;;;;27.67;9.52;;;;;;;;;;5095468;28;20420;-77
2022/09/19 14:17:29;;;;;;;18.65;3.83;;;;;;;;;;5083338;28;20506;-78
2022/09/19 14:19:59;;;;;;;14.20;3.13;;;;;;;;;;5065402;28;20431;-78
2022/09/19 14:22:39;;;;;;;10.68;2.55;;;;;;;;;;5086041;28;20416;-76
2022/09/19 14:25:15;;;;;;;9.98;2.60;;;;;;;;;;5067921;28;20436;-77
2022/09/19 14:28:18;;;;;;;11.85;2.92;;;14.90;99.90;;;;;;5067516;27;20482;-77
2022/09/19 14:30:59;;;;;;;9.60;2.50;;;14.80;99.90;;;;;;5084156;28;20508;-76
2022/09/19 14:33:43;;;;;;;7.37;2.40;;;;;;;;;;5084827;28;20427;-77
2022/09/19 14:36:23;;;;;;;12.18;2.58;;;;;;;;;;5067995;28;20418;-78
2022/09/19 14:38:55;;;;;;;9.90;2.03;;;;;;;;;;5080320;27;20428;-78
2022/09/19 14:41:21;;;;;;;8.63;2.47;;;;;;;;;;5080153;28;20967;-77
2022/09/19 14:44:04;;;;;;;8.27;2.17;;;;;;;;;;5106447;27;20740;-77
2022/09/19 14:46:33;;;;;;;9.40;2.65;;;;;;;;;;5080122;28;20418;-78
2022/09/19 14:49:01;;;;;;;6.68;1.85;;;;;;;;;;5092449;28;20435;-78
2022/09/19 14:51:33;;;;;;;9.57;1.90;;;;;;;;;;5075449;27;20507;-77
2022/09/19 14:54:26;;;;;;;10.40;2.20;;;15.40;99.90;;;;;;5075771;28;20415;-78
2022/09/19 14:57:00;;;;;;;8.32;2.25;;;;;;;;;;5091276;27;20867;-76